Time;durP1;ratioP1;P1;durP2;ratioP2;P2;SDS_P1;SDS_P2;PMS_P1;PMS_P2;Temp;Humidity;BMP_temperature;BMP_pressure;BME280_temperature;BME280_humidity;BME280_pressure;Samples;Min_cycle;Max_cycle;Signal;HPM_P1;HPM_P2
2023/08/24 00:01:09;;;;;;;;;;;;;;;;;;6183320;23;19927;-85
2023/08/24 00:03:35;;;;;;;;;;;;;;;;;;6203520;23;20324;-85
2023/08/24 00:06:01;;;;;;;;;;;;;;;;;;6206952;23;20053;-85
2023/08/24 00:08:27;;;;;;;;;;;;;;;;;;6179621;23;20026;-85
2023/08/24 00:10:54;;;;;;;;;;;;;;;;;;6208154;23;20003;-86
2023/08/24 00:13:20;;;;;;;;;;;;;;;;;;6178892;23;19964;-86
2023/08/24 00:15:46;;;;;;;;;;;;;;;;;;6207806;23;20016;-85
2023/08/24 00:18:12;;;;;;;;;;;;;;;;;;6180595;23;20009;-85
2023/08/24 00:20:38;;;;;;;;;;;;;;;;;;6179359;23;20974;-85
2023/08/24 00:23:04;;;;;;;;;;;;;;;;;;6207977;23;19977;-85
2023/08/24 00:25:30;;;;;;;;;;;;;;;;;;6179007;23;19923;-85
2023/08/24 00:27:56;;;;;;;;;;;;;;;;;;6182199;23;19915;-85
2023/08/24 00:30:22;;;;;;;;;;;;;;;;;;6180617;23;19930;-85
2023/08/24 00:32:49;;;;;;;;;;;;;;;;;;6205789;23;19970;-85
2023/08/24 00:35:15;;;;;;;;;;;;;;;;;;6181183;23;19920;-85
2023/08/24 00:37:41;;;;;;;;;;;;;;;;;;6204699;23;20338;-85
2023/08/24 00:40:22;;;;;;;;;;;;;;;;;;6205870;23;19968;-85
2023/08/24 00:42:48;;;;;;;;;;;;;;;;;;6183249;23;19923;-85
2023/08/24 00:45:14;;;;;;;;;;;;;;;;;;6208588;23;19923;-85
2023/08/24 00:47:40;;;;;;;;;;;;;;;;;;6182018;23;19919;-85
2023/08/24 00:50:06;;;;;;;;;;;;;;;;;;6207881;23;19927;-85
2023/08/24 00:52:32;;;;;;;;;;;;;;;;;;6233731;23;19932;-85
2023/08/24 00:54:58;;;;;;;;;;;;;;;;;;6183579;23;19926;-85
2023/08/24 00:57:24;;;;;;;;;;;;;;;;;;6181391;23;19920;-85
2023/08/24 00:59:50;;;;;;;;;;;;;;;;;;6184583;23;20403;-85
2023/08/24 01:02:16;;;;;;;;;;;;;;;;;;6208464;23;19926;-85
2023/08/24 01:04:42;;;;;;;;;;;;;;;;;;6206446;23;19939;-85
2023/08/24 01:07:09;;;;;;;;;;;;;;;;;;6207916;23;19920;-85
2023/08/24 01:09:35;;;;;;;;;;;;;;;;;;6206552;23;19927;-85
2023/08/24 01:12:01;;;;;;;;;;;;;;;;;;6183168;23;19920;-86
2023/08/24 01:14:27;;;;;;;;;;;;;;;;;;6179228;23;19920;-86
2023/08/24 01:16:53;;;;;;;;;;;;;;;;;;6182890;23;19927;-85
2023/08/24 01:19:19;;;;;;;;;;;;;;;;;;6207360;23;19920;-86
2023/08/24 01:21:45;;;;;;;;;;;;;;;;;;6207732;23;19920;-85
2023/08/24 01:24:11;;;;;;;;;;;;;;;;;;6182695;23;19934;-85
2023/08/24 01:26:37;;;;;;;;;;;;;;;;;;6180783;23;19919;-85
2023/08/24 01:29:03;;;;;;;;;;;;;;;;;;6181534;23;19995;-85
2023/08/24 01:31:29;;;;;;;;;;;;;;;;;;6180838;23;19926;-85
2023/08/24 01:33:55;;;;;;;;;;;;;;;;;;6209000;23;19977;-85
2023/08/24 01:36:21;;;;;;;;;;;;;;;;;;6206331;23;19919;-85
2023/08/24 01:38:47;;;;;;;;;;;;;;;;;;6207302;23;19920;-85
2023/08/24 01:41:13;;;;;;;;;;;;;;;;;;6184309;23;19927;-85
2023/08/24 01:43:39;;;;;;;;;;;;;;;;;;6205134;23;19930;-85
2023/08/24 01:46:05;;;;;;;;;;;;;;;;;;6185091;23;19925;-85
2023/08/24 01:48:31;;;;;;;;;;;;;;;;;;6207222;23;19923;-86
2023/08/24 01:50:57;;;;;;;;;;;;;;;;;;6209550;23;19927;-86
2023/08/24 01:53:23;;;;;;;;;;;;;;;;;;6182324;23;19924;-86
2023/08/24 01:55:49;;;;;;;;;;;;;;;;;;6184352;23;19920;-86
2023/08/24 01:58:15;;;;;;;;;;;;;;;;;;6182445;23;19919;-86
2023/08/24 02:00:41;;;;;;;;;;;;;;;;;;6175188;23;19919;-86
2023/08/24 02:03:07;;;;;;;;;;;;;;;;;;6181284;23;20345;-86
2023/08/24 02:05:33;;;;;;;;;;;;;;;;;;6205938;23;19955;-86
2023/08/24 02:07:59;;;;;;;;;;;;;;;;;;6182456;23;19919;-86
2023/08/24 02:10:28;;;;;;;;;;;;;;;;;;6181453;23;20256;-86
2023/08/24 02:12:54;;;;;;;;;;;;;;;;;;6207686;23;19920;-86
2023/08/24 02:15:20;;;;;;;;;;;;;;;;;;6181794;23;19926;-86
2023/08/24 02:17:46;;;;;;;;;;;;;;;;;;6182158;23;19916;-87
2023/08/24 02:20:12;;;;;;;;;;;;;;;;;;6206549;23;19924;-87
2023/08/24 02:22:38;;;;;;;;;;;;;;;;;;6179992;23;20327;-86
2023/08/24 02:25:05;;;;;;;;;;;;;;;;;;6182159;23;19930;-87
2023/08/24 02:27:31;;;;;;;;;;;;;;;;;;6209675;22;19923;-86
2023/08/24 02:29:56;;;;;;;;;;;;;;;;;;6231940;22;19916;-87
2023/08/24 02:32:22;;;;;;;;;;;;;;;;;;6207373;23;19942;-87
2023/08/24 02:34:48;;;;;;;;;;;;;;;;;;6209129;23;19955;-86
2023/08/24 02:37:14;;;;;;;;;;;;;;;;;;6233262;23;19926;-86
2023/08/24 02:39:40;;;;;;;;;;;;;;;;;;6206153;23;20286;-86
2023/08/24 02:42:06;;;;;;;;;;;;;;;;;;6206676;23;20001;-86
2023/08/24 02:44:32;;;;;;;;;;;;;;;;;;6229621;23;19924;-86
2023/08/24 02:46:58;;;;;;;;;;;;;;;;;;6207638;23;19915;-86
2023/08/24 02:49:24;;;;;;;;;;;;;;;;;;6204488;23;20252;-86
2023/08/24 02:51:50;;;;;;;;;;;;;;;;;;6205894;23;19927;-87
2023/08/24 02:54:16;;;;;;;;;;;;;;;;;;6232720;23;19920;-86
2023/08/24 02:56:42;;;;;;;;;;;;;;;;;;6205531;23;19926;-86
2023/08/24 02:59:08;;;;;;;;;;;;;;;;;;6208251;23;19969;-86
2023/08/24 03:01:38;;;;;;;;;;;;;;;;;;6205993;23;20236;-86
2023/08/24 03:04:06;;;;;;;;;;;;;;;;;;6232585;23;19946;-87
2023/08/24 03:06:32;;;;;;;;;;;;;;;;;;6206456;23;20049;-86
2023/08/24 03:08:58;;;;;;;;;;;;;;;;;;6233190;23;19970;-86
2023/08/24 03:11:24;;;;;;;;;;;;;;;;;;6231045;23;20291;-86
2023/08/24 03:13:50;;;;;;;;;;;;;;;;;;6207055;23;20002;-87
2023/08/24 03:16:16;;;;;;;;;;;;;;;;;;6231645;23;19919;-87
2023/08/24 03:18:42;;;;;;;;;;;;;;;;;;6204830;23;19919;-86
2023/08/24 03:21:09;;;;;;;;;;;;;;;;;;6205406;23;19939;-87
2023/08/24 03:23:35;;;;;;;;;;;;;;;;;;6230610;23;19922;-86
2023/08/24 03:26:01;;;;;;;;;;;;;;;;;;6206903;23;19924;-86
2023/08/24 03:28:27;;;;;;;;;;;;;;;;;;6214791;23;20347;-86
2023/08/24 03:30:55;;;;;;;;;;;;;;;;;;6180291;23;19919;-86
2023/08/24 03:33:21;;;;;;;;;;;;;;;;;;6178434;23;19987;-86
2023/08/24 03:35:47;;;;;;;;;;;;;;;;;;6182440;23;20395;-86
2023/08/24 03:38:13;;;;;;;;;;;;;;;;;;6181327;23;19923;-86
2023/08/24 03:40:39;;;;;;;;;;;;;;;;;;6204463;23;20201;-86
2023/08/24 03:43:05;;;;;;;;;;;;;;;;;;6180359;23;20295;-86
2023/08/24 03:45:31;;;;;;;;;;;;;;;;;;6203646;23;19927;-86
2023/08/24 03:48:00;;;;;;;;;;;;;;;;;;6205618;23;19973;-86
2023/08/24 03:50:26;;;;;;;;;;;;;;;;;;6204777;23;19973;-86
2023/08/24 03:52:54;;;;;;;;;;;;;;;;;;6182564;23;20252;-86
2023/08/24 03:55:23;;;;;;;;;;;;;;;;;;6180489;23;19999;-86
2023/08/24 03:57:49;;;;;;;;;;;;;;;;;;6179512;23;20396;-86
2023/08/24 04:00:15;;;;;;;;;;;;;;;;;;6180223;23;19919;-86
2023/08/24 04:02:41;;;;;;;;;;;;;;;;;;6178992;23;19965;-86
2023/08/24 04:05:07;;;;;;;;;;;;;;;;;;6180164;23;20404;-86
2023/08/24 04:07:36;;;;;;;;;;;;;;;;;;6203411;23;19994;-86
2023/08/24 04:10:02;;;;;;;;;;;;;;;;;;6205762;23;19920;-86
2023/08/24 04:12:30;;;;;;;;;;;;;;;;;;6203113;23;20392;-86
2023/08/24 04:17:48;;;;;;;;;;;;;;;;;;6207169;23;20561;-86
2023/08/24 04:20:14;;;;;;;;;;;;;;;;;;6182138;23;19991;-86
2023/08/24 04:22:40;;;;;;;;;;;;;;;;;;6205824;23;19926;-86
2023/08/24 04:25:06;;;;;;;;;;;;;;;;;;6206282;23;20005;-86
2023/08/24 04:27:32;;;;;;;;;;;;;;;;;;6180674;23;19924;-86
2023/08/24 04:29:58;;;;;;;;;;;;;;;;;;6231464;22;19994;-86
2023/08/24 04:32:24;;;;;;;;;;;;;;;;;;6205055;23;19994;-86
2023/08/24 04:34:53;;;;;;;;;;;;;;;;;;6232595;23;19920;-86
2023/08/24 04:37:21;;;;;;;;;;;;;;;;;;6234297;22;20374;-85
2023/08/24 04:39:47;;;;;;;;;;;;;;;;;;6208543;23;19923;-86
2023/08/24 04:42:13;;;;;;;;;;;;;;;;;;6208449;23;20782;-86
2023/08/24 04:44:39;;;;;;;;;;;;;;;;;;6204832;23;20006;-86
2023/08/24 04:47:05;;;;;;;;;;;;;;;;;;6207154;23;19931;-85
2023/08/24 04:49:31;;;;;;;;;;;;;;;;;;6204892;23;19923;-86
2023/08/24 04:51:57;;;;;;;;;;;;;;;;;;6233677;23;19915;-86
2023/08/24 04:54:26;;;;;;;;;;;;;;;;;;6229792;23;19920;-87
2023/08/24 04:56:53;;;;;;;;;;;;;;;;;;6233844;23;19923;-86
2023/08/24 04:59:22;;;;;;;;;;;;;;;;;;6232357;23;20001;-87
2023/08/24 05:01:48;;;;;;;;;;;;;;;;;;6231941;23;19919;-86
2023/08/24 05:04:14;;;;;;;;;;;;;;;;;;6206705;23;20025;-86
2023/08/24 05:06:40;;;;;;;;;;;;;;;;;;6231126;23;19919;-86
2023/08/24 05:09:06;;;;;;;;;;;;;;;;;;6206671;23;19920;-86
2023/08/24 05:11:34;;;;;;;;;;;;;;;;;;6229682;23;20334;-86
2023/08/24 05:14:00;;;;;;;;;;;;;;;;;;6207685;23;19950;-86
2023/08/24 05:16:27;;;;;;;;;;;;;;;;;;6229709;23;19985;-86
2023/08/24 05:18:53;;;;;;;;;;;;;;;;;;6232778;23;20328;-86
2023/08/24 05:21:19;;;;;;;;;;;;;;;;;;6205603;23;19919;-87
2023/08/24 05:23:45;;;;;;;;;;;;;;;;;;6208066;23;19926;-86
2023/08/24 05:26:11;;;;;;;;;;;;;;;;;;6210361;23;19919;-86
2023/08/24 05:28:37;;;;;;;;;;;;;;;;;;6231766;23;19935;-86
2023/08/24 05:31:03;;;;;;;;;;;;;;;;;;6207211;23;20500;-87
2023/08/24 05:33:30;;;;;;;;;;;;;;;;;;6206373;23;19920;-86
2023/08/24 05:35:57;;;;;;;;;;;;;;;;;;6235709;22;19927;-86
2023/08/24 05:38:23;;;;;;;;;;;;;;;;;;6206951;23;19924;-86
2023/08/24 05:40:49;;;;;;;;;;;;;;;;;;6234444;23;19920;-86
2023/08/24 05:43:15;;;;;;;;;;;;;;;;;;6207552;23;19919;-86
2023/08/24 05:45:44;;;;;;;;;;;;;;;;;;6204834;23;20312;-86
2023/08/24 05:48:13;;;;;;;;;;;;;;;;;;6235059;23;19941;-86
2023/08/24 05:50:39;;;;;;;;;;;;;;;;;;6206977;23;19919;-86
2023/08/24 05:58:47;;;;;;;;;;;;;;;;;;6284340;22;19923;-90
2023/08/24 06:01:14;;;;;;;;;;;;;;;;;;6245610;22;19919;-90
2023/08/24 06:03:43;;;;;;;;;;;;;;;;;;6244397;22;20832;-90
2023/08/24 06:06:14;;;;;;;;;;;;;;;;;;6270000;22;19931;-90
2023/08/24 06:08:41;;;;;;;;;;;;;;;;;;6245251;22;20399;-89
2023/08/24 06:11:13;;;;;;;;;;;;;;;;;;6262033;22;19915;-91
2023/08/24 06:13:40;;;;;;;;;;;;;;;;;;6257545;22;20662;-91
2023/08/24 06:16:07;;;;;;;;;;;;;;;;;;6288183;22;19923;-90
2023/08/24 06:18:33;;;;;;;;;;;;;;;;;;6268601;22;19919;-90
2023/08/24 06:21:00;;;;;;;;;;;;;;;;;;6286935;22;19920;-91
2023/08/24 06:23:30;;;;;;;;;;;;;;;;;;6254740;22;19926;-92
2023/08/24 06:25:58;;;;;;;;;;;;;;;;;;6253438;22;19969;-92
2023/08/24 06:28:34;;;;;;;;;;;;;;;;;;6271710;22;19976;-90
2023/08/24 06:31:00;;;;;;;;;;;;;;;;;;6242784;22;20667;-90
2023/08/24 06:33:26;;;;;;;;;;;;;;;;;;6240787;22;19946;-91
2023/08/24 06:35:58;;;;;;;;;;;;;;;;;;6250032;22;19937;-91
2023/08/24 06:38:24;;;;;;;;;;;;;;;;;;6274583;22;20343;-91
2023/08/24 06:40:50;;;;;;;;;;;;;;;;;;6268967;22;19920;-91
2023/08/24 06:43:20;;;;;;;;;;;;;;;;;;6241353;22;19929;-91
2023/08/24 06:45:46;;;;;;;;;;;;;;;;;;6242227;22;19923;-91
2023/08/24 06:48:15;;;;;;;;;;;;;;;;;;6263847;22;19919;-90
2023/08/24 06:50:42;;;;;;;;;;;;;;;;;;6238404;22;20352;-90
2023/08/24 06:53:08;;;;;;;;;;;;;;;;;;6253848;22;19926;-90
2023/08/24 06:55:37;;;;;;;;;;;;;;;;;;6282209;22;19919;-91
2023/08/24 06:58:06;;;;;;;;;;;;;;;;;;6253825;22;19914;-91
2023/08/24 07:00:36;;;;;;;;;;;;;;;;;;6239692;22;20003;-91
2023/08/24 07:03:04;;;;;;;;;;;;;;;;;;6273262;22;19919;-91
2023/08/24 07:06:04;;;;;;;;;;;;;;;;;;;;;
2023/08/24 07:08:30;;;;;;;;;;;;;;;;;;6284414;22;19926;-90
2023/08/24 07:10:59;;;;;;;;;;;;;;;;;;6257389;22;20000;-90
2023/08/24 07:13:26;;;;;;;;;;;;;;;;;;6244626;22;19919;-91
2023/08/24 07:15:57;;;;;;;;;;;;;;;;;;6246737;22;19919;-91
2023/08/24 07:18:24;;;;;;;;;;;;;;;;;;6252317;22;19927;-91
2023/08/24 07:20:50;;;;;;;;;;;;;;;;;;6233833;23;19961;-90
2023/08/24 07:23:23;;;;;;;;;;;;;;;;;;6214768;23;19930;-91
2023/08/24 07:25:59;;;;;;;;;;;;;;;;;;6203122;23;20372;-91
2023/08/24 07:28:42;;;;;;;;;;;;;;;;;;6137813;23;19924;-91
2023/08/24 07:31:13;;;;;;;;;;;;;;;;;;6188020;23;20093;-91
2023/08/24 07:36:29;;;;;;;;;;;;;;;;;;6234644;23;19943;-91
2023/08/24 07:39:00;;;;;;;;;;;;;;;;;;6253586;23;19922;-90
2023/08/24 07:41:36;;;;;;;;;;;;;;;;;;6227994;23;20323;-89
2023/08/24 07:44:08;;;;;;;;;;;;;;;;;;6200322;23;19922;-89
2023/08/24 07:46:41;;;;;;;;;;;;;;;;;;6205780;23;19930;-91
2023/08/24 07:49:07;;;;;;;;;;;;;;;;;;6213159;23;19935;-91
2023/08/24 07:51:36;;;;;;;;;;;;;;;;;;6254729;23;19916;-91
2023/08/24 07:54:08;;;;;;;;;;;;;;;;;;6226836;23;19916;-90
2023/08/24 07:56:37;;;;;;;;;;;;;;;;;;6200054;23;19919;-90
2023/08/24 08:02:06;;;;;;;;;;;;;;;;;;6260942;22;19930;-96
2023/08/24 08:04:32;;;;;;;;;;;;;;;;;;6247786;22;19923;-95
2023/08/24 08:06:58;;;;;;;;;;;;;;;;;;6256622;22;19916;-96
2023/08/24 08:09:24;;;;;;;;;;;;;;;;;;6242685;22;19951;-96
2023/08/24 08:11:51;;;;;;;;;;;;;;;;;;6241805;22;20041;-96
2023/08/24 08:14:17;;;;;;;;;;;;;;;;;;6246979;22;19938;-96
2023/08/24 08:16:43;;;;;;;;;;;;;;;;;;6217574;22;20036;-96
2023/08/24 08:19:09;;;;;;;;;;;;;;;;;;6247772;22;19930;-96
2023/08/24 08:21:40;;;;;;;;;;;;;;;;;;6250216;22;19915;-96
2023/08/24 08:24:14;;;;;;;;;;;;;;;;;;6226780;23;19922;-96
2023/08/24 08:26:43;;;;;;;;;;;;;;;;;;6197722;23;19920;-96
2023/08/24 08:29:17;;;;;;;;;;;;;;;;;;6204631;22;19910;-96
2023/08/24 08:31:54;;;;;;;;;;;;;;;;;;6224455;23;19915;-96
2023/08/24 08:34:25;;;;;;;;;;;;;;;;;;6196583;23;19958;-96
2023/08/24 08:36:51;;;;;;;;;;;;;;;;;;6195238;23;19958;-96
2023/08/24 08:39:26;;;;;;;;;;;;;;;;;;6201533;23;19974;-96
2023/08/24 08:41:58;;;;;;;;;;;;;;;;;;6202802;23;19938;-96
2023/08/24 08:44:33;;;;;;;;;;;;;;;;;;6195017;23;19924;-96
2023/08/24 08:47:01;;;;;;;;;;;;;;;;;;6229888;23;19923;-96
2023/08/24 08:49:36;;;;;;;;;;;;;;;;;;6209848;23;20413;-96
2023/08/24 08:52:15;;;;;;;;;;;;;;;;;;;;;
2023/08/24 08:54:46;;;;;;;;;;;;;;;;;;6234588;23;19927;-96
2023/08/24 08:57:29;;;;;;;;;;;;;;;;;;6232440;23;19922;-96
2023/08/24 09:00:09;;;;;;;;;;;;;;;;;;6232158;23;19946;-96
2023/08/24 09:02:40;;;;;;;;;;;;;;;;;;6295519;22;19955;-96
2023/08/24 09:05:24;;;;;;;;;;;;;;;;;;6298982;22;19919;-96
2023/08/24 09:07:57;;;;;;;;;;;;;;;;;;6272214;22;19991;-96
2023/08/24 09:10:37;;;;;;;;;;;;;;;;;;6266300;22;19922;-96
2023/08/24 09:13:06;;;;;;;;;;;;;;;;;;6274447;22;19915;-96
2023/08/24 09:15:35;;;;;;;;;;;;;;;;;;6273113;22;19969;-96
2023/08/24 09:20:51;;;;;;;;;;;;;;;;;;6282485;22;19915;-96
2023/08/24 09:23:24;;;;;;;;;;;;;;;;;;6298181;22;19923;-96
2023/08/24 09:25:56;;;;;;;;;;;;;;;;;;6275216;22;19990;-96
2023/08/24 09:28:38;;;;;;;;;;;;;;;;;;6271741;22;19915;-96
2023/08/24 09:31:23;;;;;;;;;;;;;;;;;;;;;
2023/08/24 09:33:58;;;;;;;;;;;;;;;;;;6244189;22;19974;-96
2023/08/24 09:36:27;;;;;;;;;;;;;;;;;;6267717;22;19955;-96
2023/08/24 09:38:56;;;;;;;;;;;;;;;;;;6270166;22;19929;-96
2023/08/24 09:41:24;;;;;;;;;;;;;;;;;;6268330;22;19937;-96
2023/08/24 09:43:53;;;;;;;;;;;;;;;;;;6265817;22;19926;-96
2023/08/24 09:46:22;;;;;;;;;;;;;;;;;;6262166;22;20359;-96
2023/08/24 09:48:56;;;;;;;;;;;;;;;;;;6268353;22;19919;-96
2023/08/24 09:51:25;;;;;;;;;;;;;;;;;;6267882;22;19915;-96
2023/08/24 09:54:04;;;;;;;;;;;;;;;;;;6268884;22;19989;-96
2023/08/24 09:56:33;;;;;;;;;;;;;;;;;;6266962;22;19961;-96
2023/08/24 09:59:05;;;;;;;;;;;;;;;;;;6270531;22;19921;-96
2023/08/24 10:01:34;;;;;;;;;;;;;;;;;;6267426;22;19955;-96
2023/08/24 10:04:00;;;;;;;;;;;;;;;;;;6266850;22;19922;-96
2023/08/24 10:06:29;;;;;;;;;;;;;;;;;;6267062;22;19923;-96
2023/08/24 10:09:03;;;;;;;;;;;;;;;;;;6264276;22;19915;-96
2023/08/24 10:11:32;;;;;;;;;;;;;;;;;;6265652;22;19919;-96
2023/08/24 10:14:02;;;;;;;;;;;;;;;;;;6266476;22;19915;-96
2023/08/24 10:16:34;;;;;;;;;;;;;;;;;;6266230;22;19954;-96
2023/08/24 10:22:14;;;;;;;;;;;;;;;;;;;;;
2023/08/24 10:24:48;;;;;;;;;;;;;;;;;;6287827;22;20049;-96
2023/08/24 10:27:16;;;;;;;;;;;;;;;;;;6267513;22;19915;-96
2023/08/24 10:29:48;;;;;;;;;;;;;;;;;;6241151;22;20454;-96
2023/08/24 10:32:14;;;;;;;;;;;;;;;;;;6263390;22;19915;-96
2023/08/24 10:34:40;;;;;;;;;;;;;;;;;;6263289;22;19919;-96
2023/08/24 10:37:06;;;;;;;;;;;;;;;;;;6240594;22;19919;-96
2023/08/24 10:39:35;;;;;;;;;;;;;;;;;;6265478;22;19923;-96
2023/08/24 10:42:03;;;;;;;;;;;;;;;;;;6267529;22;19915;-96
2023/08/24 10:44:35;;;;;;;;;;;;;;;;;;6268807;22;19923;-96
2023/08/24 10:47:03;;;;;;;;;;;;;;;;;;6269449;22;19915;-96
2023/08/24 10:49:34;;;;;;;;;;;;;;;;;;6208055;23;19956;-96
2023/08/24 10:52:09;;;;;;;;;;;;;;;;;;6179243;23;19940;-96
2023/08/24 10:54:41;;;;;;;;;;;;;;;;;;6202626;23;19958;-96
2023/08/24 10:57:07;;;;;;;;;;;;;;;;;;6179815;23;19916;-96
2023/08/24 10:59:38;;;;;;;;;;;;;;;;;;6178158;23;19924;-96
2023/08/24 11:02:11;;;;;;;;;;;;;;;;;;6206862;23;19970;-96
2023/08/24 11:04:49;;;;;;;;;;;;;;;;;;6179687;23;19928;-96
2023/08/24 11:07:15;;;;;;;;;;;;;;;;;;6181174;23;19920;-96
2023/08/24 11:09:43;;;;;;;;;;;;;;;;;;6178818;23;19943;-96
2023/08/24 11:12:17;;;;;;;;;;;;;;;;;;6204852;23;19923;-96
2023/08/24 11:14:54;;;;;;;;;;;;;;;;;;;;;
2023/08/24 11:17:38;;;;;;;;;;;;;;;;;;6240599;23;19923;-96
2023/08/24 11:20:07;;;;;;;;;;;;;;;;;;6205844;22;19921;-95
2023/08/24 11:22:39;;;;;;;;;;;;;;;;;;6266514;22;20334;-96
2023/08/24 11:25:13;;;;;;;;;;;;;;;;;;6265492;22;20015;-96
2023/08/24 11:27:42;;;;;;;;;;;;;;;;;;6266102;22;19919;-96
2023/08/24 11:30:21;;;;;;;;;;;;;;;;;;;;;
2023/08/24 11:33:08;;;;;;;;;;;;;;;;;;6294812;22;19922;-96
2023/08/24 11:35:43;;;;;;;;;;;;;;;;;;6271093;22;19926;-96
2023/08/24 11:38:12;;;;;;;;;;;;;;;;;;6270010;22;20335;-96
2023/08/24 11:40:38;;;;;;;;;;;;;;;;;;6270626;22;19967;-96
2023/08/24 11:43:10;;;;;;;;;;;;;;;;;;6272926;22;19938;-96
2023/08/24 11:45:47;;;;;;;;;;;;;;;;;;6288872;22;19919;-96
2023/08/24 11:48:15;;;;;;;;;;;;;;;;;;6269938;22;19943;-96
2023/08/24 11:50:55;;;;;;;;;;;;;;;;;;;;;
2023/08/24 11:53:32;;;;;;;;;;;;;;;;;;6294873;22;20306;-96
2023/08/24 11:58:55;;;;;;;;;;;;;;;;;;6264281;22;19963;-95
2023/08/24 12:04:35;;;;;;;;;;;;;;;;;;6308130;22;19933;-96
2023/08/24 12:07:01;;;;;;;;;;;;;;;;;;6270538;22;19963;-96
2023/08/24 12:09:34;;;;;;;;;;;;;;;;;;6298069;22;19922;-96
2023/08/24 12:12:00;;;;;;;;;;;;;;;;;;6296364;22;19899;-96
2023/08/24 12:14:37;;;;;;;;;;;;;;;;;;6296276;22;19954;-96
2023/08/24 12:17:09;;;;;;;;;;;;;;;;;;6294069;22;19922;-96
2023/08/24 12:19:39;;;;;;;;;;;;;;;;;;6268070;22;19915;-96
2023/08/24 12:22:05;;;;;;;;;;;;;;;;;;6271093;22;19915;-96
2023/08/24 12:24:38;;;;;;;;;;;;;;;;;;6266821;22;19922;-96
2023/08/24 12:27:10;;;;;;;;;;;;;;;;;;6290178;22;19919;-96
2023/08/24 12:32:33;;;;;;;;;;;;;;;;;;6292179;22;19955;-96
2023/08/24 12:35:05;;;;;;;;;;;;;;;;;;6269078;22;19949;-96
2023/08/24 12:37:35;;;;;;;;;;;;;;;;;;6239485;22;19942;-96
2023/08/24 12:40:10;;;;;;;;;;;;;;;;;;6266990;22;20420;-96
2023/08/24 12:42:36;;;;;;;;;;;;;;;;;;6269695;22;19919;-96
2023/08/24 12:45:09;;;;;;;;;;;;;;;;;;6266131;22;19915;-96
2023/08/24 12:47:37;;;;;;;;;;;;;;;;;;6266020;22;19930;-96
2023/08/24 12:50:12;;;;;;;;;;;;;;;;;;6292394;22;20378;-96
2023/08/24 12:52:41;;;;;;;;;;;;;;;;;;6294073;22;19985;-95
2023/08/24 12:55:13;;;;;;;;;;;;;;;;;;6270187;22;19922;-96
2023/08/24 12:57:39;;;;;;;;;;;;;;;;;;6269552;22;19919;-96
2023/08/24 13:03:03;;;;;;;;;;;;;;;;;;6290443;22;19922;-96
2023/08/24 13:05:34;;;;;;;;;;;;;;;;;;6273195;22;19903;-96
2023/08/24 13:08:14;;;;;;;;;;;;;;;;;;;;;
2023/08/24 13:10:45;;;;;;;;;;;;;;;;;;6295372;22;19923;-96
2023/08/24 13:13:13;;;;;;;;;;;;;;;;;;6295896;22;19973;-96
2023/08/24 13:18:54;;;;;;;;;;;;;;;;;;6236904;22;19954;-90
2023/08/24 13:21:26;;;;;;;;;;;;;;;;;;6183367;23;19919;-92
2023/08/24 13:27:10;;;;;;;;;;;;;;;;;;;;;
2023/08/24 13:33:26;;;;;;;;;;;;;;;;;;;;;
2023/08/24 13:36:22;;;;;;;;;;;;;;;;;;6033049;23;19973;-90
2023/08/24 13:47:57;;;;;;;;;;;;;;;;;;6077706;23;20433;-91
2023/08/24 13:53:43;;;;;;;;;;;;;;;;;;6063203;23;19967;-91
2023/08/24 14:02:32;;;;;;;;;;;;;;;;;;6057775;23;19997;-91
2023/08/24 14:07:54;;;;;;;;;;;;;;;;;;6061257;23;19921;-90
2023/08/24 16:00:45;;;;;;;;;;;;;;;;;;6261399;22;19919;-94
2023/08/24 21:32:21;;;;;;;;;;;;;;;;;;6090209;23;20258;-87
2023/08/24 21:34:47;;;;;;;;;;;;;;;;;;6111908;23;20007;-85
2023/08/24 21:37:13;;;;;;;;;;;;;;;;;;6241808;22;20386;-85
2023/08/24 21:39:39;;;;;;;;;;;;;;;;;;6241164;22;19956;-85
2023/08/24 21:42:05;;;;;;;;;;;;;;;;;;6242851;22;19919;-85
2023/08/24 21:44:34;;;;;;;;;;;;;;;;;;6240210;22;19930;-86
2023/08/24 21:47:03;;;;;;;;;;;;;;;;;;6267272;22;20340;-85
2023/08/24 21:49:29;;;;;;;;;;;;;;;;;;6239820;22;20381;-85
2023/08/24 21:52:00;;;;;;;;;;;;;;;;;;6245921;22;19929;-85
2023/08/24 21:54:30;;;;;;;;;;;;;;;;;;6242648;22;19950;-86
2023/08/24 21:56:56;;;;;;;;;;;;;;;;;;6245364;22;19926;-85
2023/08/24 21:59:22;;;;;;;;;;;;;;;;;;6243525;22;19966;-86
2023/08/24 22:01:48;;;;;;;;;;;;;;;;;;6242005;22;20465;-85
2023/08/24 22:04:16;;;;;;;;;;;;;;;;;;6242310;22;19927;-86
2023/08/24 22:06:45;;;;;;;;;;;;;;;;;;6243980;22;19919;-86
2023/08/24 22:09:14;;;;;;;;;;;;;;;;;;6242269;22;19926;-86
2023/08/24 22:11:40;;;;;;;;;;;;;;;;;;6238525;22;20024;-86
2023/08/24 22:14:13;;;;;;;;;;;;;;;;;;6240035;22;20055;-86
2023/08/24 22:16:42;;;;;;;;;;;;;;;;;;6239656;22;19925;-86
2023/08/24 22:19:08;;;;;;;;;;;;;;;;;;6241975;22;19997;-85
2023/08/24 22:21:38;;;;;;;;;;;;;;;;;;6262747;22;19927;-85
2023/08/24 22:24:17;;;;;;;;;;;;;;;;;;;;;
2023/08/24 22:26:43;;;;;;;;;;;;;;;;;;6266762;22;19955;-85
2023/08/24 22:29:11;;;;;;;;;;;;;;;;;;6240621;22;19980;-85
2023/08/24 22:31:38;;;;;;;;;;;;;;;;;;6241841;22;19998;-87
2023/08/24 22:34:07;;;;;;;;;;;;;;;;;;6263675;22;19923;-87
2023/08/24 22:36:38;;;;;;;;;;;;;;;;;;6235968;22;20575;-86
2023/08/24 22:39:04;;;;;;;;;;;;;;;;;;6239222;22;19962;-87
2023/08/24 22:41:33;;;;;;;;;;;;;;;;;;6259292;22;19919;-86
2023/08/24 22:43:59;;;;;;;;;;;;;;;;;;6237828;22;19920;-87
2023/08/24 22:46:25;;;;;;;;;;;;;;;;;;6235915;22;19923;-87
2023/08/24 22:48:54;;;;;;;;;;;;;;;;;;6238100;22;19926;-86
2023/08/24 22:51:20;;;;;;;;;;;;;;;;;;6236933;22;19930;-87
2023/08/24 22:53:46;;;;;;;;;;;;;;;;;;6237789;22;19989;-86
2023/08/24 22:56:15;;;;;;;;;;;;;;;;;;6237024;22;20453;-86
2023/08/24 22:58:41;;;;;;;;;;;;;;;;;;6235350;22;19941;-86
2023/08/24 23:01:07;;;;;;;;;;;;;;;;;;6264016;22;20364;-87
2023/08/24 23:03:33;;;;;;;;;;;;;;;;;;6260410;22;19973;-86
2023/08/24 23:06:23;;;;;;;;;;;;;;;;;;6239025;22;19998;-87
2023/08/24 23:08:59;;;;;;;;;;;;;;;;;;6263623;22;20006;-86
2023/08/24 23:11:26;;;;;;;;;;;;;;;;;;6234692;22;19990;-87
2023/08/24 23:13:52;;;;;;;;;;;;;;;;;;6237756;22;19915;-86
2023/08/24 23:16:18;;;;;;;;;;;;;;;;;;6237563;22;20423;-87
2023/08/24 23:18:44;;;;;;;;;;;;;;;;;;6233149;22;19919;-86
2023/08/24 23:21:10;;;;;;;;;;;;;;;;;;6234785;22;20330;-86
2023/08/24 23:23:42;;;;;;;;;;;;;;;;;;6269009;22;20042;-86
2023/08/24 23:26:08;;;;;;;;;;;;;;;;;;6262255;22;20359;-87
2023/08/24 23:28:37;;;;;;;;;;;;;;;;;;6260593;22;20423;-86
2023/08/24 23:31:03;;;;;;;;;;;;;;;;;;6232854;22;19951;-86
2023/08/24 23:33:32;;;;;;;;;;;;;;;;;;6261564;22;19919;-86
2023/08/24 23:36:08;;;;;;;;;;;;;;;;;;6270876;22;19961;-86
2023/08/24 23:38:36;;;;;;;;;;;;;;;;;;6263795;22;20239;-86
2023/08/24 23:41:05;;;;;;;;;;;;;;;;;;6241359;22;19919;-86
2023/08/24 23:43:31;;;;;;;;;;;;;;;;;;6262768;22;19919;-86
2023/08/24 23:45:57;;;;;;;;;;;;;;;;;;6237198;22;20455;-86
2023/08/24 23:48:26;;;;;;;;;;;;;;;;;;6262363;22;20014;-86
2023/08/24 23:50:52;;;;;;;;;;;;;;;;;;6266927;22;19956;-87
2023/08/24 23:53:19;;;;;;;;;;;;;;;;;;6240715;22;19919;-86
2023/08/24 23:55:48;;;;;;;;;;;;;;;;;;6266327;22;20296;-87
2023/08/24 23:58:14;;;;;;;;;;;;;;;;;;6268095;22;19934;-87
